KBFI

Boeing Field / King County International Airport

Seattle, Washington, USA
METAR KBFI 092053Z 13008KT 6SM -RA BR FEW045 OVC055 06/04 A3015 RMK AO2 SLP209 P0005 60018 T00610039 58005
Observed Flight Rules
Dec-9 @ 20:53 UTC (47 minutes ago) Visual Flight Rules
Wind Visibility Clouds Conditions
130° at 8 knots 6 miles
  • Few at 4,500' AGL
  • Overcast at 5,500' AGL
  • Light Rain
  • Mist
Temperatures Readings Precipitation
Current 6°C / 43°F
Dewpoint 4°C / 39°F
Humidity 87%
Altimeter 30.15" Hg
Pressure 1020.9 hPa
Elevation 4
Current Rain 0.05
METAR KBFI 092053Z 13008KT 6SM -RA BR FEW045 OVC055 06/04 A3015 RMK AO2 SLP209 P0005 60018 T00610039 58005
Observed Flight Rules
Dec-9 @ 20:53 UTC
(47 minutes ago)
VFR
Wind Visibility
130° at 8 knots 6 miles
Clouds
  • Few at 4,500' AGL
  • Overcast at 5,500' AGL
Conditions
  • Light Rain
  • Mist
Temperature Dewpoint
6°C / 43°F 4°C / 39°F
Humidity Altimeter Pressure
87% 30.15" Hg 1020.9 hPa
Current Rain
0.05